sensor_id;sensor_type;location;lat;lon;timestamp;temperature;humidity
5697;DHT22;2873;50.966;7.210;2023-05-16T00:00:20;14.10;99.90
5697;DHT22;2873;50.966;7.210;2023-05-16T00:02:46;14.00;99.90
5697;DHT22;2873;50.966;7.210;2023-05-16T00:05:12;14.10;99.90
5697;DHT22;2873;50.966;7.210;2023-05-16T00:07:41;14.10;99.90
5697;DHT22;2873;50.966;7.210;2023-05-16T00:10:08;13.90;99.90
5697;DHT22;2873;50.966;7.210;2023-05-16T00:12:34;13.90;99.90
5697;DHT22;2873;50.966;7.210;2023-05-16T00:15:01;13.90;99.90
5697;DHT22;2873;50.966;7.210;2023-05-16T00:17:27;14.00;99.90
5697;DHT22;2873;50.966;7.210;2023-05-16T00:19:53;14.00;99.90
5697;DHT22;2873;50.966;7.210;2023-05-16T00:22:23;13.90;99.90
5697;DHT22;2873;50.966;7.210;2023-05-16T00:24:49;13.80;99.90
5697;DHT22;2873;50.966;7.210;2023-05-16T00:27:15;13.80;99.90
5697;DHT22;2873;50.966;7.210;2023-05-16T00:29:40;13.70;99.90
5697;DHT22;2873;50.966;7.210;2023-05-16T00:32:06;13.70;99.90
5697;DHT22;2873;50.966;7.210;2023-05-16T00:34:33;13.60;99.90
5697;DHT22;2873;50.966;7.210;2023-05-16T00:36:59;13.50;99.90
5697;DHT22;2873;50.966;7.210;2023-05-16T00:39:24;13.30;99.90
5697;DHT22;2873;50.966;7.210;2023-05-16T00:41:50;13.30;99.90
5697;DHT22;2873;50.966;7.210;2023-05-16T00:44:16;13.20;99.90
5697;DHT22;2873;50.966;7.210;2023-05-16T00:46:41;13.40;99.90
5697;DHT22;2873;50.966;7.210;2023-05-16T00:49:08;13.20;99.90
5697;DHT22;2873;50.966;7.210;2023-05-16T00:51:35;13.20;99.90
5697;DHT22;2873;50.966;7.210;2023-05-16T00:54:01;13.20;99.90
5697;DHT22;2873;50.966;7.210;2023-05-16T00:56:27;13.30;99.90
5697;DHT22;2873;50.966;7.210;2023-05-16T00:58:52;13.20;99.90
5697;DHT22;2873;50.966;7.210;2023-05-16T01:01:19;13.20;99.90
5697;DHT22;2873;50.966;7.210;2023-05-16T01:03:47;13.20;99.90
5697;DHT22;2873;50.966;7.210;2023-05-16T01:06:13;13.30;99.90
5697;DHT22;2873;50.966;7.210;2023-05-16T01:08:38;13.30;99.90
5697;DHT22;2873;50.966;7.210;2023-05-16T01:16:58;13.40;99.90
5697;DHT22;2873;50.966;7.210;2023-05-16T01:19:50;13.40;99.90
5697;DHT22;2873;50.966;7.210;2023-05-16T01:22:28;13.30;99.90
5697;DHT22;2873;50.966;7.210;2023-05-16T01:27:54;13.20;99.90
5697;DHT22;2873;50.966;7.210;2023-05-16T01:30:20;13.30;99.90
5697;DHT22;2873;50.966;7.210;2023-05-16T01:32:46;13.20;99.90
5697;DHT22;2873;50.966;7.210;2023-05-16T01:35:14;13.30;99.90
5697;DHT22;2873;50.966;7.210;2023-05-16T01:38:10;13.30;99.90
5697;DHT22;2873;50.966;7.210;2023-05-16T01:40:47;13.30;99.90
5697;DHT22;2873;50.966;7.210;2023-05-16T01:43:20;13.20;99.90
5697;DHT22;2873;50.966;7.210;2023-05-16T01:45:52;13.20;99.90
5697;DHT22;2873;50.966;7.210;2023-05-16T01:48:22;13.20;99.90
5697;DHT22;2873;50.966;7.210;2023-05-16T01:50:54;13.10;99.90
5697;DHT22;2873;50.966;7.210;2023-05-16T01:53:30;13.10;99.90
5697;DHT22;2873;50.966;7.210;2023-05-16T01:55:59;13.10;99.90
5697;DHT22;2873;50.966;7.210;2023-05-16T01:58:29;12.90;99.90
5697;DHT22;2873;50.966;7.210;2023-05-16T02:01:01;12.90;99.90
5697;DHT22;2873;50.966;7.210;2023-05-16T02:03:28;12.90;99.90
5697;DHT22;2873;50.966;7.210;2023-05-16T02:05:53;12.80;99.90
5697;DHT22;2873;50.966;7.210;2023-05-16T02:08:19;12.70;99.90
5697;DHT22;2873;50.966;7.210;2023-05-16T02:10:45;12.70;99.90
5697;DHT22;2873;50.966;7.210;2023-05-16T02:13:11;12.70;99.90
5697;DHT22;2873;50.966;7.210;2023-05-16T02:15:36;12.60;99.90
5697;DHT22;2873;50.966;7.210;2023-05-16T02:18:02;12.60;99.90
5697;DHT22;2873;50.966;7.210;2023-05-16T02:20:27;12.60;99.90
5697;DHT22;2873;50.966;7.210;2023-05-16T02:22:53;12.70;99.90
5697;DHT22;2873;50.966;7.210;2023-05-16T02:25:18;12.70;99.90
5697;DHT22;2873;50.966;7.210;2023-05-16T02:27:44;12.70;99.90
5697;DHT22;2873;50.966;7.210;2023-05-16T02:30:10;12.70;99.90
5697;DHT22;2873;50.966;7.210;2023-05-16T02:32:39;12.70;99.90
5697;DHT22;2873;50.966;7.210;2023-05-16T02:35:05;12.70;99.90
5697;DHT22;2873;50.966;7.210;2023-05-16T02:37:32;12.70;99.90
5697;DHT22;2873;50.966;7.210;2023-05-16T02:39:58;12.60;99.90
5697;DHT22;2873;50.966;7.210;2023-05-16T02:42:25;12.60;99.90
5697;DHT22;2873;50.966;7.210;2023-05-16T02:44:51;12.50;99.90
5697;DHT22;2873;50.966;7.210;2023-05-16T02:47:19;12.50;99.90
5697;DHT22;2873;50.966;7.210;2023-05-16T02:49:45;12.40;99.90
5697;DHT22;2873;50.966;7.210;2023-05-16T02:52:11;12.40;99.90
5697;DHT22;2873;50.966;7.210;2023-05-16T02:54:37;12.20;99.90
5697;DHT22;2873;50.966;7.210;2023-05-16T02:57:03;12.30;99.90
5697;DHT22;2873;50.966;7.210;2023-05-16T02:59:29;12.30;99.90
5697;DHT22;2873;50.966;7.210;2023-05-16T03:01:54;12.20;99.90
5697;DHT22;2873;50.966;7.210;2023-05-16T03:04:20;12.20;99.90
5697;DHT22;2873;50.966;7.210;2023-05-16T03:06:46;12.00;99.90
5697;DHT22;2873;50.966;7.210;2023-05-16T03:09:12;11.80;99.90
5697;DHT22;2873;50.966;7.210;2023-05-16T03:11:37;11.60;99.90
5697;DHT22;2873;50.966;7.210;2023-05-16T03:14:03;11.50;99.90
5697;DHT22;2873;50.966;7.210;2023-05-16T03:16:29;11.50;99.90
5697;DHT22;2873;50.966;7.210;2023-05-16T03:18:55;11.30;99.90
5697;DHT22;2873;50.966;7.210;2023-05-16T03:21:21;11.20;99.90
5697;DHT22;2873;50.966;7.210;2023-05-16T03:23:46;11.20;99.90
5697;DHT22;2873;50.966;7.210;2023-05-16T03:26:12;11.20;99.90
5697;DHT22;2873;50.966;7.210;2023-05-16T03:28:38;11.00;99.90
5697;DHT22;2873;50.966;7.210;2023-05-16T03:31:03;11.00;99.90
5697;DHT22;2873;50.966;7.210;2023-05-16T03:33:29;11.00;99.90
5697;DHT22;2873;50.966;7.210;2023-05-16T03:35:55;11.00;99.90
5697;DHT22;2873;50.966;7.210;2023-05-16T03:38:20;10.90;99.90
5697;DHT22;2873;50.966;7.210;2023-05-16T03:40:46;10.90;99.90
5697;DHT22;2873;50.966;7.210;2023-05-16T03:43:12;10.80;99.90
5697;DHT22;2873;50.966;7.210;2023-05-16T03:45:37;10.80;99.90
5697;DHT22;2873;50.966;7.210;2023-05-16T03:48:03;11.00;99.90
5697;DHT22;2873;50.966;7.210;2023-05-16T03:50:29;10.90;99.90
5697;DHT22;2873;50.966;7.210;2023-05-16T03:52:54;10.90;99.90
5697;DHT22;2873;50.966;7.210;2023-05-16T03:55:20;10.90;99.90
5697;DHT22;2873;50.966;7.210;2023-05-16T03:57:46;10.80;99.90
5697;DHT22;2873;50.966;7.210;2023-05-16T04:00:12;10.90;99.90
5697;DHT22;2873;50.966;7.210;2023-05-16T04:02:39;10.80;99.90
5697;DHT22;2873;50.966;7.210;2023-05-16T04:05:06;10.90;99.90
5697;DHT22;2873;50.966;7.210;2023-05-16T04:07:33;10.80;99.90
5697;DHT22;2873;50.966;7.210;2023-05-16T04:09:58;10.90;99.90
5697;DHT22;2873;50.966;7.210;2023-05-16T04:12:24;11.00;99.90
5697;DHT22;2873;50.966;7.210;2023-05-16T04:14:49;11.10;99.90
5697;DHT22;2873;50.966;7.210;2023-05-16T04:17:15;11.10;99.90
5697;DHT22;2873;50.966;7.210;2023-05-16T04:19:40;11.10;99.90
5697;DHT22;2873;50.966;7.210;2023-05-16T04:22:06;11.20;99.90
5697;DHT22;2873;50.966;7.210;2023-05-16T04:24:32;11.30;99.90
5697;DHT22;2873;50.966;7.210;2023-05-16T04:26:57;11.20;99.90
5697;DHT22;2873;50.966;7.210;2023-05-16T04:29:23;11.10;99.90
5697;DHT22;2873;50.966;7.210;2023-05-16T04:31:49;11.10;99.90
5697;DHT22;2873;50.966;7.210;2023-05-16T04:34:15;11.10;99.90
5697;DHT22;2873;50.966;7.210;2023-05-16T04:36:40;11.00;99.90
5697;DHT22;2873;50.966;7.210;2023-05-16T04:39:06;11.00;99.90
5697;DHT22;2873;50.966;7.210;2023-05-16T04:41:32;10.90;99.90
5697;DHT22;2873;50.966;7.210;2023-05-16T04:44:01;11.00;99.90
5697;DHT22;2873;50.966;7.210;2023-05-16T04:46:28;11.00;99.90
5697;DHT22;2873;50.966;7.210;2023-05-16T04:48:54;10.90;99.90
5697;DHT22;2873;50.966;7.210;2023-05-16T04:51:20;11.00;99.90
5697;DHT22;2873;50.966;7.210;2023-05-16T04:53:46;11.10;99.90
5697;DHT22;2873;50.966;7.210;2023-05-16T04:56:11;11.00;99.90
5697;DHT22;2873;50.966;7.210;2023-05-16T04:58:37;11.00;99.90
5697;DHT22;2873;50.966;7.210;2023-05-16T05:01:03;11.00;99.90
5697;DHT22;2873;50.966;7.210;2023-05-16T05:03:28;10.90;99.90
5697;DHT22;2873;50.966;7.210;2023-05-16T05:05:54;11.00;99.90
5697;DHT22;2873;50.966;7.210;2023-05-16T05:08:20;11.00;99.90
5697;DHT22;2873;50.966;7.210;2023-05-16T05:10:46;11.00;99.90
5697;DHT22;2873;50.966;7.210;2023-05-16T05:13:11;10.90;99.90
5697;DHT22;2873;50.966;7.210;2023-05-16T05:15:37;10.90;99.90
5697;DHT22;2873;50.966;7.210;2023-05-16T05:18:03;11.00;99.90
5697;DHT22;2873;50.966;7.210;2023-05-16T05:20:28;11.00;99.90
5697;DHT22;2873;50.966;7.210;2023-05-16T05:22:54;11.00;99.90
5697;DHT22;2873;50.966;7.210;2023-05-16T05:25:20;11.10;99.90
5697;DHT22;2873;50.966;7.210;2023-05-16T05:27:45;10.90;99.90
5697;DHT22;2873;50.966;7.210;2023-05-16T05:30:11;10.90;99.90
5697;DHT22;2873;50.966;7.210;2023-05-16T05:32:37;10.90;99.90
5697;DHT22;2873;50.966;7.210;2023-05-16T05:35:03;10.80;99.90
5697;DHT22;2873;50.966;7.210;2023-05-16T05:37:28;10.80;99.90
5697;DHT22;2873;50.966;7.210;2023-05-16T05:39:54;10.70;99.90
5697;DHT22;2873;50.966;7.210;2023-05-16T05:42:20;10.70;99.90
5697;DHT22;2873;50.966;7.210;2023-05-16T05:44:45;10.90;99.90
5697;DHT22;2873;50.966;7.210;2023-05-16T05:47:11;10.90;99.90
5697;DHT22;2873;50.966;7.210;2023-05-16T05:49:37;10.90;99.90
5697;DHT22;2873;50.966;7.210;2023-05-16T05:52:03;11.00;99.90
5697;DHT22;2873;50.966;7.210;2023-05-16T05:54:28;11.00;99.90
5697;DHT22;2873;50.966;7.210;2023-05-16T05:56:56;11.00;99.90
5697;DHT22;2873;50.966;7.210;2023-05-16T05:59:21;11.00;99.90
5697;DHT22;2873;50.966;7.210;2023-05-16T06:01:47;11.10;99.90
5697;DHT22;2873;50.966;7.210;2023-05-16T06:04:17;11.20;99.90
5697;DHT22;2873;50.966;7.210;2023-05-16T06:06:43;11.20;99.90
5697;DHT22;2873;50.966;7.210;2023-05-16T06:09:08;11.10;99.90
5697;DHT22;2873;50.966;7.210;2023-05-16T06:11:34;11.10;99.90
5697;DHT22;2873;50.966;7.210;2023-05-16T06:13:59;11.20;99.90
5697;DHT22;2873;50.966;7.210;2023-05-16T06:16:25;11.10;99.90
5697;DHT22;2873;50.966;7.210;2023-05-16T06:18:51;11.30;99.90
5697;DHT22;2873;50.966;7.210;2023-05-16T06:21:17;11.40;99.90
5697;DHT22;2873;50.966;7.210;2023-05-16T06:23:42;11.60;99.90
5697;DHT22;2873;50.966;7.210;2023-05-16T06:26:08;11.70;99.90
5697;DHT22;2873;50.966;7.210;2023-05-16T06:28:33;11.90;99.90
5697;DHT22;2873;50.966;7.210;2023-05-16T06:30:59;12.10;99.90
5697;DHT22;2873;50.966;7.210;2023-05-16T06:33:24;12.10;99.90
5697;DHT22;2873;50.966;7.210;2023-05-16T06:35:50;12.10;99.90
5697;DHT22;2873;50.966;7.210;2023-05-16T06:38:17;12.10;99.90
5697;DHT22;2873;50.966;7.210;2023-05-16T06:40:43;12.30;99.90
5697;DHT22;2873;50.966;7.210;2023-05-16T06:43:09;12.10;99.90
5697;DHT22;2873;50.966;7.210;2023-05-16T06:45:36;12.20;99.90
5697;DHT22;2873;50.966;7.210;2023-05-16T06:48:05;12.20;99.90
5697;DHT22;2873;50.966;7.210;2023-05-16T06:50:32;12.30;99.90
5697;DHT22;2873;50.966;7.210;2023-05-16T06:53:00;12.30;99.90
5697;DHT22;2873;50.966;7.210;2023-05-16T06:55:25;12.40;99.90
5697;DHT22;2873;50.966;7.210;2023-05-16T06:57:51;12.50;99.90
5697;DHT22;2873;50.966;7.210;2023-05-16T07:00:17;12.40;99.90
5697;DHT22;2873;50.966;7.210;2023-05-16T07:02:42;12.30;99.90
5697;DHT22;2873;50.966;7.210;2023-05-16T07:05:08;12.30;99.90
5697;DHT22;2873;50.966;7.210;2023-05-16T07:07:34;12.30;99.90
5697;DHT22;2873;50.966;7.210;2023-05-16T07:10:00;12.40;99.90
5697;DHT22;2873;50.966;7.210;2023-05-16T07:12:25;12.40;99.90
5697;DHT22;2873;50.966;7.210;2023-05-16T07:14:51;12.60;99.90
5697;DHT22;2873;50.966;7.210;2023-05-16T07:17:16;12.50;99.90
5697;DHT22;2873;50.966;7.210;2023-05-16T07:19:42;12.70;99.90
5697;DHT22;2873;50.966;7.210;2023-05-16T07:22:08;12.60;99.90
5697;DHT22;2873;50.966;7.210;2023-05-16T07:24:33;12.80;99.90
5697;DHT22;2873;50.966;7.210;2023-05-16T07:27:00;12.90;99.90
5697;DHT22;2873;50.966;7.210;2023-05-16T07:29:26;13.00;99.90
5697;DHT22;2873;50.966;7.210;2023-05-16T07:31:51;13.00;99.90
5697;DHT22;2873;50.966;7.210;2023-05-16T07:34:17;13.10;99.90
5697;DHT22;2873;50.966;7.210;2023-05-16T07:36:42;13.10;99.90
5697;DHT22;2873;50.966;7.210;2023-05-16T07:39:08;13.20;99.90
5697;DHT22;2873;50.966;7.210;2023-05-16T07:41:34;13.30;99.90
5697;DHT22;2873;50.966;7.210;2023-05-16T07:43:59;13.30;99.90
5697;DHT22;2873;50.966;7.210;2023-05-16T07:46:25;13.40;99.90
5697;DHT22;2873;50.966;7.210;2023-05-16T07:48:51;13.40;99.90
5697;DHT22;2873;50.966;7.210;2023-05-16T07:51:16;13.60;99.90
5697;DHT22;2873;50.966;7.210;2023-05-16T07:53:42;13.70;99.90
5697;DHT22;2873;50.966;7.210;2023-05-16T07:56:08;13.80;99.90
5697;DHT22;2873;50.966;7.210;2023-05-16T07:58:33;13.90;99.90
5697;DHT22;2873;50.966;7.210;2023-05-16T08:00:59;13.90;99.90
5697;DHT22;2873;50.966;7.210;2023-05-16T08:03:25;14.00;99.90
5697;DHT22;2873;50.966;7.210;2023-05-16T08:05:50;14.10;99.90
5697;DHT22;2873;50.966;7.210;2023-05-16T08:08:16;14.00;99.90
5697;DHT22;2873;50.966;7.210;2023-05-16T08:10:42;13.90;99.90
5697;DHT22;2873;50.966;7.210;2023-05-16T08:13:07;13.70;99.90
5697;DHT22;2873;50.966;7.210;2023-05-16T08:15:34;13.60;99.90
5697;DHT22;2873;50.966;7.210;2023-05-16T08:18:00;13.40;99.90
5697;DHT22;2873;50.966;7.210;2023-05-16T08:20:26;13.50;99.90
5697;DHT22;2873;50.966;7.210;2023-05-16T08:22:52;13.50;99.90
5697;DHT22;2873;50.966;7.210;2023-05-16T08:25:18;13.60;99.90
5697;DHT22;2873;50.966;7.210;2023-05-16T08:27:44;13.50;99.90
5697;DHT22;2873;50.966;7.210;2023-05-16T08:30:10;13.60;99.90
5697;DHT22;2873;50.966;7.210;2023-05-16T08:32:36;13.80;99.90
5697;DHT22;2873;50.966;7.210;2023-05-16T08:35:02;13.90;99.90
5697;DHT22;2873;50.966;7.210;2023-05-16T08:37:27;13.90;99.90
5697;DHT22;2873;50.966;7.210;2023-05-16T08:39:53;13.80;99.90
5697;DHT22;2873;50.966;7.210;2023-05-16T08:42:19;14.00;99.90
5697;DHT22;2873;50.966;7.210;2023-05-16T08:44:44;14.20;99.90
5697;DHT22;2873;50.966;7.210;2023-05-16T08:47:12;14.20;99.90
5697;DHT22;2873;50.966;7.210;2023-05-16T08:49:40;14.30;99.90
5697;DHT22;2873;50.966;7.210;2023-05-16T08:52:07;14.30;99.90
5697;DHT22;2873;50.966;7.210;2023-05-16T08:54:34;14.20;99.90
5697;DHT22;2873;50.966;7.210;2023-05-16T08:57:00;14.20;99.90
5697;DHT22;2873;50.966;7.210;2023-05-16T08:59:27;14.20;99.90
5697;DHT22;2873;50.966;7.210;2023-05-16T09:01:54;14.30;99.90
5697;DHT22;2873;50.966;7.210;2023-05-16T09:04:20;14.30;99.90
5697;DHT22;2873;50.966;7.210;2023-05-16T09:06:49;14.30;99.90
5697;DHT22;2873;50.966;7.210;2023-05-16T09:09:14;14.30;99.90
5697;DHT22;2873;50.966;7.210;2023-05-16T09:11:41;14.30;99.90
5697;DHT22;2873;50.966;7.210;2023-05-16T09:14:06;14.20;99.90
5697;DHT22;2873;50.966;7.210;2023-05-16T09:16:32;14.20;99.90
5697;DHT22;2873;50.966;7.210;2023-05-16T09:18:59;14.20;99.90
5697;DHT22;2873;50.966;7.210;2023-05-16T09:21:30;14.30;99.90
5697;DHT22;2873;50.966;7.210;2023-05-16T09:24:02;14.10;99.90
5697;DHT22;2873;50.966;7.210;2023-05-16T09:26:29;14.20;99.90
5697;DHT22;2873;50.966;7.210;2023-05-16T09:28:55;14.40;99.90
5697;DHT22;2873;50.966;7.210;2023-05-16T09:31:21;14.50;99.90
5697;DHT22;2873;50.966;7.210;2023-05-16T09:33:48;14.60;99.90
5697;DHT22;2873;50.966;7.210;2023-05-16T09:36:16;14.80;99.90
5697;DHT22;2873;50.966;7.210;2023-05-16T09:38:42;15.00;99.90
5697;DHT22;2873;50.966;7.210;2023-05-16T09:41:09;15.20;99.90
5697;DHT22;2873;50.966;7.210;2023-05-16T09:43:37;15.40;99.90
5697;DHT22;2873;50.966;7.210;2023-05-16T09:46:03;15.50;99.90
5697;DHT22;2873;50.966;7.210;2023-05-16T09:48:29;15.70;99.90
5697;DHT22;2873;50.966;7.210;2023-05-16T09:50:56;15.80;99.90
5697;DHT22;2873;50.966;7.210;2023-05-16T09:53:28;15.70;99.90
5697;DHT22;2873;50.966;7.210;2023-05-16T09:56:04;15.70;99.90
5697;DHT22;2873;50.966;7.210;2023-05-16T09:58:33;15.70;99.90
5697;DHT22;2873;50.966;7.210;2023-05-16T10:01:00;15.70;99.90
5697;DHT22;2873;50.966;7.210;2023-05-16T10:03:27;15.70;99.90
5697;DHT22;2873;50.966;7.210;2023-05-16T10:05:54;15.60;99.90
5697;DHT22;2873;50.966;7.210;2023-05-16T10:08:21;15.70;99.90
5697;DHT22;2873;50.966;7.210;2023-05-16T10:10:50;15.70;99.90
5697;DHT22;2873;50.966;7.210;2023-05-16T10:13:28;15.70;99.90
5697;DHT22;2873;50.966;7.210;2023-05-16T10:15:58;15.60;99.90
5697;DHT22;2873;50.966;7.210;2023-05-16T10:18:30;15.70;99.90
5697;DHT22;2873;50.966;7.210;2023-05-16T10:20:59;15.90;99.90
5697;DHT22;2873;50.966;7.210;2023-05-16T10:23:27;15.90;99.90
5697;DHT22;2873;50.966;7.210;2023-05-16T10:25:54;16.10;99.90
5697;DHT22;2873;50.966;7.210;2023-05-16T10:28:22;16.20;99.90
5697;DHT22;2873;50.966;7.210;2023-05-16T10:30:49;16.00;99.90
5697;DHT22;2873;50.966;7.210;2023-05-16T10:33:17;16.10;99.90
5697;DHT22;2873;50.966;7.210;2023-05-16T10:35:43;16.30;99.90
5697;DHT22;2873;50.966;7.210;2023-05-16T10:38:11;16.40;99.90
5697;DHT22;2873;50.966;7.210;2023-05-16T10:40:39;16.50;99.90
5697;DHT22;2873;50.966;7.210;2023-05-16T10:43:06;16.50;99.90
5697;DHT22;2873;50.966;7.210;2023-05-16T10:45:33;16.50;99.90
5697;DHT22;2873;50.966;7.210;2023-05-16T10:48:03;16.70;99.90
5697;DHT22;2873;50.966;7.210;2023-05-16T10:50:36;16.70;99.90
5697;DHT22;2873;50.966;7.210;2023-05-16T10:53:18;16.90;99.90
5697;DHT22;2873;50.966;7.210;2023-05-16T10:58:39;17.20;99.90
5697;DHT22;2873;50.966;7.210;2023-05-16T11:01:27;17.20;99.90
5697;DHT22;2873;50.966;7.210;2023-05-16T11:09:11;17.40;99.90
5697;DHT22;2873;50.966;7.210;2023-05-16T11:14:26;17.80;99.90
5697;DHT22;2873;50.966;7.210;2023-05-16T11:17:00;17.70;99.90
5697;DHT22;2873;50.966;7.210;2023-05-16T11:27:24;17.70;99.90
5697;DHT22;2873;50.966;7.210;2023-05-16T11:29:51;17.80;99.90
5697;DHT22;2873;50.966;7.210;2023-05-16T11:32:20;17.90;99.90
5697;DHT22;2873;50.966;7.210;2023-05-16T11:34:47;17.90;99.90
5697;DHT22;2873;50.966;7.210;2023-05-16T11:37:13;18.00;99.90
5697;DHT22;2873;50.966;7.210;2023-05-16T11:39:40;18.10;99.90
5697;DHT22;2873;50.966;7.210;2023-05-16T11:42:05;18.00;99.90
5697;DHT22;2873;50.966;7.210;2023-05-16T11:44:31;18.20;99.90
5697;DHT22;2873;50.966;7.210;2023-05-16T11:46:59;18.10;99.90
5697;DHT22;2873;50.966;7.210;2023-05-16T11:49:26;18.20;99.90
5697;DHT22;2873;50.966;7.210;2023-05-16T11:51:53;18.00;99.90
5697;DHT22;2873;50.966;7.210;2023-05-16T11:54:19;17.90;99.90
5697;DHT22;2873;50.966;7.210;2023-05-16T11:56:45;17.80;99.90
5697;DHT22;2873;50.966;7.210;2023-05-16T11:59:11;17.60;99.90
5697;DHT22;2873;50.966;7.210;2023-05-16T12:01:38;17.40;99.90
5697;DHT22;2873;50.966;7.210;2023-05-16T12:04:11;17.50;99.90
5697;DHT22;2873;50.966;7.210;2023-05-16T12:06:37;17.30;99.90
5697;DHT22;2873;50.966;7.210;2023-05-16T12:09:04;17.30;99.90
5697;DHT22;2873;50.966;7.210;2023-05-16T12:11:40;17.50;99.90
5697;DHT22;2873;50.966;7.210;2023-05-16T12:14:07;17.80;99.90
5697;DHT22;2873;50.966;7.210;2023-05-16T12:16:34;18.10;99.90
5697;DHT22;2873;50.966;7.210;2023-05-16T12:19:02;18.20;99.90
5697;DHT22;2873;50.966;7.210;2023-05-16T12:21:29;18.50;99.90
5697;DHT22;2873;50.966;7.210;2023-05-16T12:23:55;18.90;99.90
5697;DHT22;2873;50.966;7.210;2023-05-16T12:26:25;19.20;99.90
5697;DHT22;2873;50.966;7.210;2023-05-16T12:28:55;19.10;99.90
5697;DHT22;2873;50.966;7.210;2023-05-16T12:31:22;19.30;99.90
5697;DHT22;2873;50.966;7.210;2023-05-16T12:33:52;19.50;99.90
5697;DHT22;2873;50.966;7.210;2023-05-16T12:36:17;19.40;99.90
5697;DHT22;2873;50.966;7.210;2023-05-16T12:38:45;19.30;99.80
5697;DHT22;2873;50.966;7.210;2023-05-16T12:41:17;19.40;99.90
5697;DHT22;2873;50.966;7.210;2023-05-16T12:43:42;19.30;99.60
5697;DHT22;2873;50.966;7.210;2023-05-16T12:46:09;19.40;99.90
5697;DHT22;2873;50.966;7.210;2023-05-16T12:48:36;19.50;99.70
5697;DHT22;2873;50.966;7.210;2023-05-16T12:51:16;19.60;99.90
5697;DHT22;2873;50.966;7.210;2023-05-16T12:53:46;19.60;99.70
5697;DHT22;2873;50.966;7.210;2023-05-16T12:56:13;19.60;99.30
5697;DHT22;2873;50.966;7.210;2023-05-16T12:58:40;19.60;99.00
5697;DHT22;2873;50.966;7.210;2023-05-16T13:01:06;19.80;98.40
5697;DHT22;2873;50.966;7.210;2023-05-16T13:03:32;19.70;98.40
5697;DHT22;2873;50.966;7.210;2023-05-16T13:05:58;19.50;97.60
5697;DHT22;2873;50.966;7.210;2023-05-16T13:08:24;19.60;97.60
5697;DHT22;2873;50.966;7.210;2023-05-16T13:10:50;19.30;98.00
5697;DHT22;2873;50.966;7.210;2023-05-16T13:13:16;19.00;97.90
5697;DHT22;2873;50.966;7.210;2023-05-16T13:15:43;18.70;98.40
5697;DHT22;2873;50.966;7.210;2023-05-16T13:18:09;18.50;98.80
5697;DHT22;2873;50.966;7.210;2023-05-16T13:20:34;18.40;99.30
5697;DHT22;2873;50.966;7.210;2023-05-16T13:23:00;18.50;99.90
5697;DHT22;2873;50.966;7.210;2023-05-16T13:25:26;18.60;99.80
5697;DHT22;2873;50.966;7.210;2023-05-16T13:27:51;18.60;99.40
5697;DHT22;2873;50.966;7.210;2023-05-16T13:30:17;18.70;99.70
5697;DHT22;2873;50.966;7.210;2023-05-16T13:32:43;18.80;99.80
5697;DHT22;2873;50.966;7.210;2023-05-16T13:35:08;18.90;99.60
5697;DHT22;2873;50.966;7.210;2023-05-16T13:37:35;19.10;99.90
5697;DHT22;2873;50.966;7.210;2023-05-16T13:40:01;18.90;99.90
5697;DHT22;2873;50.966;7.210;2023-05-16T13:42:26;19.00;99.90
5697;DHT22;2873;50.966;7.210;2023-05-16T13:44:52;18.90;99.10
5697;DHT22;2873;50.966;7.210;2023-05-16T13:47:17;19.20;99.30
5697;DHT22;2873;50.966;7.210;2023-05-16T13:49:44;19.40;99.20
5697;DHT22;2873;50.966;7.210;2023-05-16T13:52:10;19.40;98.10
5697;DHT22;2873;50.966;7.210;2023-05-16T13:54:35;19.40;96.70
5697;DHT22;2873;50.966;7.210;2023-05-16T13:57:01;19.60;96.60
5697;DHT22;2873;50.966;7.210;2023-05-16T13:59:28;19.80;96.40
5697;DHT22;2873;50.966;7.210;2023-05-16T14:01:53;20.00;96.20
5697;DHT22;2873;50.966;7.210;2023-05-16T14:04:19;20.00;95.40
5697;DHT22;2873;50.966;7.210;2023-05-16T14:06:45;20.10;95.00
5697;DHT22;2873;50.966;7.210;2023-05-16T14:09:10;20.10;94.60
5697;DHT22;2873;50.966;7.210;2023-05-16T14:11:37;20.40;94.40
5697;DHT22;2873;50.966;7.210;2023-05-16T14:14:03;20.50;94.20
5697;DHT22;2873;50.966;7.210;2023-05-16T14:16:29;20.70;93.90
5697;DHT22;2873;50.966;7.210;2023-05-16T14:18:55;20.60;94.10
5697;DHT22;2873;50.966;7.210;2023-05-16T14:21:21;20.80;93.90
5697;DHT22;2873;50.966;7.210;2023-05-16T14:23:46;20.90;93.30
5697;DHT22;2873;50.966;7.210;2023-05-16T14:26:13;21.10;93.60
5697;DHT22;2873;50.966;7.210;2023-05-16T14:28:38;21.00;94.20
5697;DHT22;2873;50.966;7.210;2023-05-16T14:31:04;20.80;93.50
5697;DHT22;2873;50.966;7.210;2023-05-16T14:33:30;20.90;92.70
5697;DHT22;2873;50.966;7.210;2023-05-16T14:35:57;21.10;93.10
5697;DHT22;2873;50.966;7.210;2023-05-16T14:38:23;21.10;92.60
5697;DHT22;2873;50.966;7.210;2023-05-16T14:40:48;21.10;93.70
5697;DHT22;2873;50.966;7.210;2023-05-16T14:43:14;21.00;92.10
5697;DHT22;2873;50.966;7.210;2023-05-16T14:45:41;20.80;92.40
5697;DHT22;2873;50.966;7.210;2023-05-16T14:48:06;20.90;92.20
5697;DHT22;2873;50.966;7.210;2023-05-16T14:50:32;20.90;92.00
5697;DHT22;2873;50.966;7.210;2023-05-16T14:52:58;20.70;91.70
5697;DHT22;2873;50.966;7.210;2023-05-16T14:55:23;20.60;90.50
5697;DHT22;2873;50.966;7.210;2023-05-16T14:57:49;20.80;91.20
5697;DHT22;2873;50.966;7.210;2023-05-16T15:00:15;20.80;91.50
5697;DHT22;2873;50.966;7.210;2023-05-16T15:02:44;20.70;91.00
5697;DHT22;2873;50.966;7.210;2023-05-16T15:05:10;20.60;91.00
5697;DHT22;2873;50.966;7.210;2023-05-16T15:07:36;20.90;91.30
5697;DHT22;2873;50.966;7.210;2023-05-16T15:10:01;21.10;91.80
5697;DHT22;2873;50.966;7.210;2023-05-16T15:12:27;21.20;91.70
5697;DHT22;2873;50.966;7.210;2023-05-16T15:14:52;21.00;91.00
5697;DHT22;2873;50.966;7.210;2023-05-16T15:17:18;21.10;91.50
5697;DHT22;2873;50.966;7.210;2023-05-16T15:19:43;20.90;91.10
5697;DHT22;2873;50.966;7.210;2023-05-16T15:22:09;21.10;91.30
5697;DHT22;2873;50.966;7.210;2023-05-16T15:24:35;21.00;91.40
5697;DHT22;2873;50.966;7.210;2023-05-16T15:27:01;20.50;91.50
5697;DHT22;2873;50.966;7.210;2023-05-16T15:29:29;20.10;91.40
5697;DHT22;2873;50.966;7.210;2023-05-16T15:31:54;19.90;91.60
5697;DHT22;2873;50.966;7.210;2023-05-16T15:34:20;19.90;92.10
5697;DHT22;2873;50.966;7.210;2023-05-16T15:36:46;19.70;92.10
5697;DHT22;2873;50.966;7.210;2023-05-16T15:39:12;19.60;92.30
5697;DHT22;2873;50.966;7.210;2023-05-16T15:41:37;19.60;92.60
5697;DHT22;2873;50.966;7.210;2023-05-16T15:44:03;19.50;92.90
5697;DHT22;2873;50.966;7.210;2023-05-16T15:46:30;19.50;93.20
5697;DHT22;2873;50.966;7.210;2023-05-16T15:48:57;19.50;92.80
5697;DHT22;2873;50.966;7.210;2023-05-16T15:51:23;19.30;92.70
5697;DHT22;2873;50.966;7.210;2023-05-16T15:53:49;19.20;92.80
5697;DHT22;2873;50.966;7.210;2023-05-16T15:56:15;19.20;93.10
5697;DHT22;2873;50.966;7.210;2023-05-16T15:58:41;18.90;92.90
5697;DHT22;2873;50.966;7.210;2023-05-16T16:01:07;18.90;93.20
5697;DHT22;2873;50.966;7.210;2023-05-16T16:03:33;18.70;93.50
5697;DHT22;2873;50.966;7.210;2023-05-16T16:05:59;18.70;93.80
5697;DHT22;2873;50.966;7.210;2023-05-16T16:08:24;18.50;94.20
5697;DHT22;2873;50.966;7.210;2023-05-16T16:10:50;18.50;94.20
5697;DHT22;2873;50.966;7.210;2023-05-16T16:13:15;18.70;94.20
5697;DHT22;2873;50.966;7.210;2023-05-16T16:15:41;18.70;94.60
5697;DHT22;2873;50.966;7.210;2023-05-16T16:18:07;18.70;94.60
5697;DHT22;2873;50.966;7.210;2023-05-16T16:20:32;18.70;94.70
5697;DHT22;2873;50.966;7.210;2023-05-16T16:22:58;18.70;95.10
5697;DHT22;2873;50.966;7.210;2023-05-16T16:25:24;18.80;95.60